Time;durP1;ratioP1;P1;durP2;ratioP2;P2;SDS_P1;SDS_P2;PMS_P1;PMS_P2;Temp;Humidity;BMP_temperature;BMP_pressure;BME280_temperature;BME280_humidity;BME280_pressure;Samples;Min_cycle;Max_cycle;Signal;HPM_P1;HPM_P2
2022/04/15 00:01:26;;;;;;;20.48;12.98;;;;;;;13.15;nan;101979.97;5019089;28;20025;-82
2022/04/15 00:03:52;;;;;;;22.45;12.43;;;;;;;13.11;nan;101978.81;5016465;28;20025;-81
2022/04/15 00:06:20;;;;;;;19.98;12.65;;;;;;;13.08;nan;101979.25;5018358;28;20029;-82
2022/04/15 00:08:47;;;;;;;19.70;13.70;;;;;;;13.07;nan;101980.31;5015327;28;20026;-83
2022/04/15 00:11:13;;;;;;;21.20;13.18;;;;;;;13.05;nan;101982.41;5021946;28;20029;-82
2022/04/15 00:13:38;;;;;;;19.25;13.10;;;;;;;13.00;nan;101983.94;5020734;28;20412;-83
2022/04/15 00:16:05;;;;;;;20.80;13.23;;;;;;;12.97;nan;101979.03;5022360;28;20033;-82
2022/04/15 00:18:32;;;;;;;20.90;12.77;;;;;;;12.97;nan;101976.34;5015574;28;20049;-82
2022/04/15 00:20:59;;;;;;;21.23;12.70;;;;;;;12.97;nan;101979.03;5017016;28;20611;-83
2022/04/15 00:23:24;;;;;;;21.02;12.98;;;;;;;12.96;nan;101972.03;5013499;28;20082;-82
2022/04/15 00:25:54;;;;;;;23.15;12.73;;;;;;;12.94;nan;101974.13;5011448;28;20050;-82
2022/04/15 00:28:20;;;;;;;17.83;12.15;;;;;;;12.92;nan;101970.81;5017824;28;20033;-82
2022/04/15 00:30:46;;;;;;;18.70;12.35;;;;;;;12.85;nan;101970.13;5021807;28;20021;-83
2022/04/15 00:33:12;;;;;;;18.52;11.85;;;;;;;12.79;nan;101971.06;5021386;28;20112;-82
2022/04/15 00:35:37;;;;;;;17.38;11.55;;;;;;;12.79;nan;101983.72;5019544;28;20025;-82
2022/04/15 00:38:03;;;;;;;18.50;11.93;;;;;;;12.77;nan;101973.19;5022021;28;20030;-82
2022/04/15 00:40:29;;;;;;;20.83;12.45;;;;;;;12.78;nan;101980.19;5022559;28;20354;-83
2022/04/15 00:42:55;;;;;;;19.23;12.48;;;;;;;12.79;nan;101978.31;5018756;28;20018;-82
2022/04/15 00:45:20;;;;;;;18.90;12.45;;;;;;;12.77;nan;101988.50;5018058;28;20052;-82
2022/04/15 00:47:57;;;;;;;19.75;12.95;;;;;;;12.64;nan;101994.91;5017826;28;20108;-82
2022/04/15 00:50:31;;;;;;;21.85;11.52;;;;;;;12.52;nan;102000.25;5018409;28;20032;-82
2022/04/15 00:53:06;;;;;;;25.48;11.70;;;;;;;12.46;nan;102003.88;5018587;28;20100;-82
2022/04/15 00:55:32;;;;;;;20.45;11.25;;;;;;;12.41;nan;102006.44;5017596;28;20030;-82
2022/04/15 00:58:00;;;;;;;16.02;11.07;;;;;;;12.38;nan;102007.69;5016694;28;20037;-82
2022/04/15 01:00:28;;;;;;;20.00;11.70;;;;;;;12.35;nan;102008.16;5015907;28;20030;-82
2022/04/15 01:02:57;;;;;;;20.92;11.07;;;;;;;12.34;nan;102011.88;5014702;28;20045;-82
2022/04/15 01:05:24;;;;;;;20.08;10.18;;;;;;;12.29;nan;102009.06;5022223;28;20026;-82
2022/04/15 01:07:51;;;;;;;17.25;10.10;;;;;;;12.25;nan;102001.69;5024217;28;20060;-82
2022/04/15 01:10:19;;;;;;;13.02;9.45;;;;;;;12.18;nan;102007.16;5020662;28;20025;-82
2022/04/15 01:12:51;;;;;;;13.50;8.30;;;;;;;12.13;nan;102019.63;5027009;28;20224;-82
2022/04/15 01:15:19;;;;;;;15.43;8.00;;;;;;;12.07;nan;102013.31;5012793;28;20090;-82
2022/04/15 01:17:45;;;;;;;13.15;6.90;;;;;;;12.02;nan;102010.47;5018312;28;20029;-82
2022/04/15 01:20:12;;;;;;;14.70;7.80;;;;;;;11.97;nan;102010.34;5016258;28;20026;-82
2022/04/15 01:22:39;;;;;;;13.95;6.97;;;;;;;11.88;nan;102006.34;5029286;28;20026;-83
2022/04/15 01:25:06;;;;;;;14.10;7.32;;;;;;;11.80;nan;102010.94;5012825;28;20029;-82
2022/04/15 01:27:39;;;;;;;8.48;6.40;;;;;;;11.76;nan;102009.72;5015273;28;20132;-82
2022/04/15 01:30:07;;;;;;;10.80;6.65;;;;;;;11.74;nan;102006.47;5013298;28;20037;-82
2022/04/15 01:32:32;;;;;;;11.15;6.43;;;;;;;11.71;nan;102014.16;5017269;28;20030;-81
2022/04/15 01:34:58;;;;;;;10.93;6.18;;;;;;;11.70;nan;102007.13;5012378;28;20138;-82
2022/04/15 01:37:24;;;;;;;9.70;6.43;;;;;;;11.68;nan;102009.22;5018122;28;20045;-82
2022/04/15 01:39:50;;;;;;;10.40;6.13;;;;;;;11.66;nan;102012.13;5014817;28;20040;-82
2022/04/15 01:43:05;;;;;;;14.45;6.60;;;;;;;11.58;nan;102015.09;5006234;28;20122;-82
2022/04/15 01:45:40;;;;;;;11.15;7.30;;;;;;;11.62;nan;102008.25;5004371;28;20034;-82
2022/04/15 01:48:06;;;;;;;10.93;6.47;;;;;;;11.67;nan;102005.72;5011884;28;20029;-82
2022/04/15 01:50:31;;;;;;;10.15;6.45;;;;;;;11.63;nan;102012.56;5011384;28;20093;-82
2022/04/15 01:52:58;;;;;;;10.88;6.35;;;;;;;11.59;nan;102006.00;5016379;28;20218;-82
2022/04/15 01:55:24;;;;;;;11.90;6.00;;;;;;;11.56;nan;102003.78;5010231;28;20030;-82
2022/04/15 01:57:49;;;;;;;9.55;6.00;;;;;;;11.56;nan;102014.50;5012804;28;20087;-82
2022/04/15 02:00:15;;;;;;;12.30;6.35;;;;;;;11.55;nan;102006.69;5012327;28;20018;-82
2022/04/15 02:02:41;;;;;;;10.23;6.10;;;;;;;11.56;nan;102005.66;5021921;28;20038;-82
2022/04/15 02:05:07;;;;;;;9.45;5.80;;;;;;;11.57;nan;102008.09;5012380;28;20508;-82
2022/04/15 02:07:42;;;;;;;10.55;5.97;;;;;;;11.53;nan;102009.59;5015373;28;20026;-82
2022/04/15 02:10:08;;;;;;;11.27;6.32;;;;;;;11.56;nan;102011.00;5013309;28;20025;-82
2022/04/15 02:12:34;;;;;;;13.02;6.60;;;;;;;11.55;nan;102007.50;5021779;28;20030;-82
2022/04/15 02:14:59;;;;;;;12.38;6.65;;;;;;;11.52;nan;102013.31;5021160;28;20032;-82
2022/04/15 02:17:25;;;;;;;11.35;6.15;;;;;;;11.51;nan;102014.38;5017259;28;20022;-82
2022/04/15 02:19:52;;;;;;;9.93;5.85;;;;;;;11.48;nan;102017.47;5018784;28;20033;-82
2022/04/15 02:22:18;;;;;;;12.27;6.40;;;;;;;11.46;nan;102015.03;5015752;28;20043;-82
2022/04/15 02:24:43;;;;;;;13.30;7.20;;;;;;;11.45;nan;102009.88;5016351;28;20093;-82
2022/04/15 02:27:09;;;;;;;10.32;6.18;;;;;;;11.43;nan;102015.47;5021257;28;20072;-82
2022/04/15 02:29:35;;;;;;;17.80;6.93;;;;;;;11.38;nan;102028.75;5018020;28;20432;-82
2022/04/15 02:32:00;;;;;;;9.73;6.50;;;;;;;11.31;nan;102017.28;5015178;28;20026;-82
2022/04/15 02:34:26;;;;;;;10.65;7.05;;;;;;;11.27;nan;102025.97;5017362;28;20032;-81
2022/04/15 02:36:51;;;;;;;8.77;6.38;;;;;;;11.22;nan;102023.94;5013836;28;20033;-82
2022/04/15 02:39:17;;;;;;;11.98;7.00;;;;;;;11.22;nan;102028.50;5011490;28;20034;-81
2022/04/15 02:41:43;;;;;;;10.52;7.03;;;;;;;11.15;nan;102024.03;5017016;28;20096;-81
2022/04/15 02:44:09;;;;;;;10.20;6.78;;;;;;;11.15;nan;102028.56;5013538;28;20023;-81
2022/04/15 02:46:35;;;;;;;13.80;7.30;;;;;;;11.15;nan;102023.19;5017672;28;20124;-81
2022/04/15 02:49:02;;;;;;;10.82;7.13;;;;;;;11.14;nan;102026.94;5012739;28;20033;-82
2022/04/15 02:51:28;;;;;;;11.23;7.50;;;;;;;11.10;nan;102029.19;5013966;28;20041;-81
2022/04/15 02:53:54;;;;;;;12.38;7.30;;;;;;;11.09;nan;102029.44;5016121;28;20037;-82
2022/04/15 02:56:19;;;;;;;12.77;8.30;;;;;;;11.06;nan;102024.50;5014522;28;20030;-81
2022/04/15 02:58:45;;;;;;;13.05;7.32;;;;;;;11.05;nan;102023.69;5015253;28;20099;-81
2022/04/15 03:01:10;;;;;;;11.95;6.97;;;;;;;11.01;nan;102019.81;5016388;28;20025;-82
2022/04/15 03:03:36;;;;;;;13.82;8.07;;;;;;;10.99;nan;102024.56;5023469;28;20418;-82
2022/04/15 03:06:04;;;;;;;11.55;7.93;;;;;;;10.97;nan;102025.84;5026367;28;20037;-82
2022/04/15 03:08:30;;;;;;;12.30;8.35;;;;;;;10.93;nan;102027.28;5020167;28;20087;-82
2022/04/15 03:10:57;;;;;;;16.77;7.65;;;;;;;10.89;nan;102022.38;5027132;28;20477;-82
2022/04/15 03:13:23;;;;;;;14.20;7.80;;;;;;;10.88;nan;102017.22;5024319;28;20025;-82
2022/04/15 03:15:49;;;;;;;12.05;7.72;;;;;;;10.86;nan;102017.47;5025922;28;20022;-82
2022/04/15 03:18:15;;;;;;;12.57;7.78;;;;;;;10.83;nan;102023.25;5023640;28;20048;-82
2022/04/15 03:20:42;;;;;;;10.80;7.28;;;;;;;10.83;nan;102027.81;5022233;28;21366;-82
2022/04/15 03:23:08;;;;;;;13.95;7.78;;;;;;;10.83;nan;102036.66;5038518;23;20036;-74
2022/04/15 03:25:34;;;;;;;14.27;7.63;;;;;;;10.86;nan;102032.72;5040764;28;20026;-73
2022/04/15 03:28:00;;;;;;;13.73;7.43;;;;;;;10.85;nan;102028.41;5041613;28;20031;-73
2022/04/15 03:30:27;;;;;;;10.95;7.07;;;;;;;10.84;nan;102032.94;5043632;28;20025;-74
2022/04/15 03:32:53;;;;;;;11.90;7.00;;;;;;;10.81;nan;102038.75;5041262;28;20025;-75
2022/04/15 03:35:21;;;;;;;16.17;7.22;;;;;;;10.80;nan;102041.66;5042819;28;20028;-74
2022/04/15 03:37:47;;;;;;;11.63;6.93;;;;;;;10.78;nan;102030.31;5042588;28;20102;-73
2022/04/15 03:40:13;;;;;;;12.35;6.97;;;;;;;10.75;nan;102034.22;5043514;28;20056;-74
2022/04/15 03:42:54;;;;;;;13.13;6.70;;;;;;;10.70;nan;102041.28;5041516;28;20104;-74
2022/04/15 03:45:22;;;;;;;14.90;7.32;;;;;;;10.69;nan;102037.78;5041766;28;20039;-74
2022/04/15 03:47:49;;;;;;;11.93;6.97;;;;;;;10.67;nan;102034.50;5042573;28;20033;-74
2022/04/15 03:50:16;;;;;;;14.10;6.78;;;;;;;10.65;nan;102041.13;5041538;28;20082;-74
2022/04/15 03:52:45;;;;;;;12.57;6.68;;;;;;;10.65;nan;102043.81;5043135;28;20094;-74
2022/04/15 03:55:13;;;;;;;13.98;7.10;;;;;;;10.65;nan;102038.47;5041907;28;20227;-74
2022/04/15 03:57:39;;;;;;;15.48;7.47;;;;;;;10.66;nan;102045.47;5038630;28;20028;-74
2022/04/15 04:00:10;;;;;;;14.88;7.50;;;;;;;10.62;nan;102037.03;5044773;28;20051;-73
2022/04/15 04:02:36;;;;;;;13.25;7.38;;;;;;;10.64;nan;102043.00;5041885;28;20080;-74
2022/04/15 04:05:02;;;;;;;13.30;7.25;;;;;;;10.63;nan;102046.72;5043985;28;20028;-74
2022/04/15 04:07:27;;;;;;;12.10;7.53;;;;;;;10.58;nan;102047.34;5045793;28;20033;-74
2022/04/15 04:09:53;;;;;;;12.18;7.50;;;;;;;10.56;nan;102048.59;5045959;28;20040;-74
2022/04/15 04:12:19;;;;;;;14.48;8.00;;;;;;;10.55;nan;102050.47;5040050;28;20021;-74
2022/04/15 04:14:44;;;;;;;10.07;7.00;;;;;;;10.58;nan;102054.56;5049542;28;20074;-74
2022/04/15 04:17:10;;;;;;;13.07;7.78;;;;;;;10.57;nan;102055.59;5044948;28;20068;-73
2022/04/15 04:19:36;;;;;;;13.32;8.13;;;;;;;10.54;nan;102056.84;5051819;28;20082;-74
2022/04/15 04:22:02;;;;;;;12.25;7.75;;;;;;;10.54;nan;102056.84;5049508;28;20572;-73
2022/04/15 04:24:28;;;;;;;14.85;7.63;;;;;;;10.52;nan;102058.13;5047814;28;20025;-74
2022/04/15 04:26:54;;;;;;;14.70;8.68;;;;;;;10.48;nan;102057.72;5041237;28;20474;-73
2022/04/15 04:29:19;;;;;;;15.80;9.20;;;;;;;10.45;nan;102066.19;5045353;28;20029;-74
2022/04/15 04:31:45;;;;;;;18.88;9.45;;;;;;;10.40;nan;102070.53;5044136;28;20025;-74
2022/04/15 04:34:10;;;;;;;13.20;9.10;;;;;;;10.37;nan;102073.66;5042961;28;20031;-74
2022/04/15 04:36:36;;;;;;;18.67;8.55;;;;;;;10.35;nan;102081.09;5046732;28;20100;-74
2022/04/15 04:39:01;;;;;;;13.57;8.52;;;;;;;10.29;nan;102077.41;5045144;28;20560;-74
2022/04/15 04:41:27;;;;;;;15.05;8.55;;;;;;;10.26;nan;102084.03;5045694;28;20033;-74
2022/04/15 04:43:52;;;;;;;18.67;9.32;;;;;;;10.21;nan;102080.31;5038551;28;20053;-74
2022/04/15 04:46:18;;;;;;;16.85;8.90;;;;;;;10.17;nan;102079.91;5042983;28;20029;-74
2022/04/15 04:48:43;;;;;;;10.75;7.25;;;;;;;10.08;nan;102083.03;5043686;28;20095;-74
2022/04/15 04:51:09;;;;;;;12.45;7.60;;;;;;;10.03;nan;102080.97;5043736;28;20508;-73
2022/04/15 04:53:35;;;;;;;9.60;6.78;;;;;;;10.02;nan;102084.69;5027806;28;20079;-74
2022/04/15 04:56:00;;;;;;;9.13;6.65;;;;;;;9.99;nan;102091.28;5043803;28;20069;-75
2022/04/15 04:58:26;;;;;;;12.07;6.68;;;;;;;9.95;nan;102086.59;5045430;28;20029;-75
2022/04/15 05:00:51;;;;;;;11.18;6.57;;;;;;;9.92;nan;102087.84;5042517;28;20065;-74
2022/04/15 05:03:17;;;;;;;12.82;5.90;;;;;;;9.87;nan;102095.66;5045106;28;20087;-75
2022/04/15 05:05:42;;;;;;;12.38;6.55;;;;;;;9.82;nan;102098.16;5046327;28;20028;-75
2022/04/15 05:08:08;;;;;;;9.85;5.88;;;;;;;9.77;nan;102103.31;5047199;28;20091;-75
2022/04/15 05:10:33;;;;;;;12.00;7.10;;;;;;;9.77;nan;102095.28;5044028;28;20481;-75
2022/04/15 05:13:01;;;;;;;9.38;6.32;;;;;;;9.79;nan;102103.91;5046069;28;20024;-75
2022/04/15 05:15:27;;;;;;;9.57;6.05;;;;;;;9.77;nan;102103.31;5043673;28;20037;-75
2022/04/15 05:17:52;;;;;;;9.35;6.07;;;;;;;9.79;nan;102098.56;5043847;28;20637;-75
2022/04/15 05:20:19;;;;;;;9.07;5.45;;;;;;;9.81;nan;102106.38;5040472;28;20021;-74
2022/04/15 05:22:44;;;;;;;9.38;6.00;;;;;;;9.78;nan;102112.16;5045117;28;20024;-75
2022/04/15 05:25:10;;;;;;;10.20;5.95;;;;;;;9.73;nan;102110.13;5042926;28;20021;-75
2022/04/15 05:27:36;;;;;;;12.10;5.85;;;;;;;9.72;nan;102113.00;5046270;28;20540;-74
2022/04/15 05:30:03;;;;;;;9.75;5.30;;;;;;;9.74;nan;102116.28;5045251;28;20021;-75
2022/04/15 05:32:28;;;;;;;9.32;5.43;;;;;;;9.74;nan;102116.28;5045370;28;20078;-75
2022/04/15 05:34:54;;;;;;;14.23;5.97;;;;;;;9.77;nan;102113.19;5024499;28;20025;-75
2022/04/15 05:37:19;;;;;;;10.32;5.97;;;;;;;9.78;nan;102104.97;5047098;28;20052;-75
2022/04/15 05:39:45;;;;;;;10.50;5.70;;;;;;;9.79;nan;102111.94;5046873;28;20039;-75
2022/04/15 05:42:10;;;;;;;7.97;5.20;;;;;;;9.81;nan;102114.41;5043558;28;20029;-75
2022/04/15 05:44:36;;;;;;;11.07;5.80;;;;;;;9.82;nan;102119.56;5045850;28;20060;-75
2022/04/15 05:47:01;;;;;;;8.63;4.85;;;;;;;9.80;nan;102116.28;5045387;28;20028;-75
2022/04/15 05:49:27;;;;;;;9.80;5.38;;;;;;;9.80;nan;102116.28;5043853;28;20025;-75
2022/04/15 05:51:53;;;;;;;13.23;5.93;;;;;;;9.81;nan;102139.31;5046482;28;20104;-75
2022/04/15 05:54:18;;;;;;;8.45;5.05;;;;;;;9.82;nan;102127.59;5045582;28;20525;-75
2022/04/15 05:56:44;;;;;;;9.73;5.60;;;;;;;9.81;nan;102131.28;5044666;28;21693;-75
2022/04/15 05:59:09;;;;;;;8.88;5.40;;;;;;;9.81;nan;102139.31;5043980;28;20554;-75
2022/04/15 06:01:35;;;;;;;10.77;5.35;;;;;;;9.78;nan;102142.44;5043415;28;20041;-75
2022/04/15 06:04:01;;;;;;;12.15;6.32;;;;;;;9.75;nan;102137.50;5041091;28;20051;-75
2022/04/15 06:06:26;;;;;;;8.98;6.30;;;;;;;9.77;nan;102135.44;5043079;28;20025;-75
2022/04/15 06:08:53;;;;;;;8.32;5.43;;;;;;;9.79;nan;102144.06;5044456;28;20042;-75
2022/04/15 06:11:19;;;;;;;10.80;6.38;;;;;;;9.80;nan;102142.22;5043661;28;20029;-75
2022/04/15 06:13:47;;;;;;;9.50;6.43;;;;;;;9.80;nan;102145.72;5041776;28;20498;-75
2022/04/15 06:16:17;;;;;;;9.23;6.60;;;;;;;9.81;nan;102144.69;5040533;28;20056;-75
2022/04/15 06:18:43;;;;;;;8.27;5.75;;;;;;;9.80;nan;102151.06;5041884;28;20064;-75
2022/04/15 06:21:08;;;;;;;9.65;6.28;;;;;;;9.81;nan;102144.69;5042715;28;20125;-75
2022/04/15 06:23:34;;;;;;;10.60;6.13;;;;;;;9.80;nan;102151.06;5044220;28;20644;-75
2022/04/15 06:25:59;;;;;;;12.20;6.68;;;;;;;9.83;nan;102150.66;5041899;28;20025;-75
2022/04/15 06:28:25;;;;;;;11.18;6.80;;;;;;;9.84;nan;102154.97;5043088;28;20025;-75
2022/04/15 06:30:51;;;;;;;8.88;6.10;;;;;;;9.86;nan;102152.09;5043393;28;20499;-75
2022/04/15 06:33:20;;;;;;;11.32;6.45;;;;;;;9.86;nan;102152.91;5024534;28;20040;-75
2022/04/15 06:35:46;;;;;;;9.80;6.30;;;;;;;9.83;nan;102157.84;5043243;28;20549;-75
2022/04/15 06:38:12;;;;;;;10.52;5.82;;;;;;;9.82;nan;102156.22;5042065;28;20029;-75
2022/04/15 06:40:38;;;;;;;9.80;6.45;;;;;;;9.78;nan;102161.16;5041679;28;20655;-75
2022/04/15 06:43:04;;;;;;;12.73;6.70;;;;;;;9.80;nan;102160.94;5043706;28;20155;-75
2022/04/15 06:45:30;;;;;;;14.73;7.35;;;;;;;9.80;nan;102156.41;5039606;28;20563;-75
2022/04/15 06:47:56;;;;;;;12.02;6.60;;;;;;;9.81;nan;102160.75;5042514;28;20036;-75
2022/04/15 06:50:21;;;;;;;13.45;6.80;;;;;;;9.81;nan;102160.75;5040534;28;20029;-75
2022/04/15 06:52:47;;;;;;;11.73;6.47;;;;;;;9.81;nan;102158.06;5044180;28;20060;-75
2022/04/15 06:55:13;;;;;;;15.98;7.05;;;;;;;9.83;nan;102164.03;5044681;28;20047;-75
2022/04/15 06:57:38;;;;;;;8.63;5.47;;;;;;;9.86;nan;102168.97;5045791;28;21787;-75
2022/04/15 07:00:05;;;;;;;10.02;7.07;;;;;;;9.88;nan;102166.94;5046199;28;20048;-75
2022/04/15 07:02:33;;;;;;;13.05;6.93;;;;;;;9.88;nan;102160.75;5043206;28;20148;-75
2022/04/15 07:04:59;;;;;;;9.60;6.25;;;;;;;9.85;nan;102171.84;5044648;28;20029;-75
2022/04/15 07:07:24;;;;;;;13.65;7.20;;;;;;;9.86;nan;102174.31;5044013;28;20028;-75
2022/04/15 07:09:50;;;;;;;13.23;7.22;;;;;;;9.88;nan;102169.59;5045640;28;20086;-75
2022/04/15 07:12:17;;;;;;;13.27;7.75;;;;;;;9.94;nan;102176.78;5044807;28;20025;-75
2022/04/15 07:14:43;;;;;;;13.00;7.43;;;;;;;9.99;nan;102181.50;5041780;28;20058;-74
2022/04/15 07:17:09;;;;;;;12.50;6.80;;;;;;;9.99;nan;102168.94;5044442;28;20017;-75
2022/04/15 07:19:35;;;;;;;12.02;7.60;;;;;;;9.98;nan;102178.00;5046536;28;20116;-74
2022/04/15 07:22:00;;;;;;;11.45;6.78;;;;;;;9.97;nan;102173.69;5044172;28;20040;-74
2022/04/15 07:24:27;;;;;;;14.23;6.72;;;;;;;9.96;nan;102180.06;5045896;28;20094;-74
2022/04/15 07:26:53;;;;;;;12.02;7.95;;;;;;;9.98;nan;102182.53;5045090;28;20025;-74
2022/04/15 07:29:20;;;;;;;11.20;7.38;;;;;;;10.00;nan;102183.97;5044329;28;20039;-74
2022/04/15 07:31:46;;;;;;;11.98;7.57;;;;;;;10.03;nan;102182.72;5047110;28;20096;-74
2022/04/15 07:34:11;;;;;;;13.13;7.32;;;;;;;10.09;nan;102183.78;5044154;28;20119;-75
2022/04/15 07:39:06;;;;;;;12.57;7.22;;;;;;;10.14;nan;102187.47;5045096;28;20510;-74
2022/04/15 07:41:32;;;;;;;10.38;6.60;;;;;;;10.18;nan;102187.84;5040934;28;20029;-73
2022/04/15 07:43:58;;;;;;;11.68;6.57;;;;;;;10.17;nan;102187.03;5048618;28;20417;-73
2022/04/15 07:46:23;;;;;;;10.60;6.32;;;;;;;10.19;nan;102194.84;5044020;28;20017;-73
2022/04/15 07:48:49;;;;;;;12.40;6.32;;;;;;;10.17;nan;102191.56;5045226;28;20056;-73
2022/04/15 07:51:15;;;;;;;9.20;5.85;;;;;;;10.17;nan;102191.56;5042746;28;20052;-73
2022/04/15 07:53:41;;;;;;;11.75;6.07;;;;;;;10.21;nan;102193.63;5043545;28;20032;-73
2022/04/15 07:56:07;;;;;;;9.73;6.40;;;;;;;10.21;nan;102198.16;5041537;28;20028;-73
2022/04/15 07:58:32;;;;;;;6.85;5.18;;;;;;;10.16;nan;102203.31;5043163;28;20030;-73
2022/04/15 08:01:00;;;;;;;7.72;5.18;;;;;;;10.17;nan;102199.59;5028206;28;20429;-73
2022/04/15 08:03:29;;;;;;;7.95;5.18;;;;;;;10.13;nan;102206.41;5046522;28;20128;-73
2022/04/15 08:05:55;;;;;;;8.32;4.78;;;;;;;10.13;nan;102201.06;5042407;28;20029;-73
2022/04/15 08:08:21;;;;;;;6.10;4.70;;;;;;;10.11;nan;102208.47;5040794;28;20036;-73
2022/04/15 08:10:48;;;;;;;7.22;4.90;;;;;;;10.10;nan;102201.50;5043127;28;21666;-73
2022/04/15 08:13:14;;;;;;;7.93;4.72;;;;;;;10.10;nan;102206.84;5042023;28;20024;-73
2022/04/15 08:15:40;;;;;;;7.95;5.05;;;;;;;10.11;nan;102209.31;5042807;28;20048;-72
2022/04/15 08:18:05;;;;;;;7.97;4.85;;;;;;;10.14;nan;102206.22;5041470;28;20068;-73
2022/04/15 08:20:31;;;;;;;7.68;5.03;;;;;;;10.15;nan;102207.84;5044662;28;20032;-72
2022/04/15 08:22:56;;;;;;;6.65;4.53;;;;;;;10.16;nan;102212.16;5042505;28;20029;-73
2022/04/15 08:25:22;;;;;;;8.15;4.40;;;;;;;10.18;nan;102217.31;5043590;28;20043;-73
2022/04/15 08:27:48;;;;;;;7.07;4.68;;;;;;;10.16;nan;102211.34;5044229;28;20498;-73
2022/04/15 08:30:13;;;;;;;5.65;3.90;;;;;;;10.16;nan;102211.34;5048843;28;20116;-73
2022/04/15 08:32:39;;;;;;;7.00;4.30;;;;;;;10.18;nan;102222.66;5047031;28;20029;-73
2022/04/15 08:35:06;;;;;;;6.05;3.70;;;;;;;10.19;nan;102221.63;5044331;28;20017;-73
2022/04/15 08:37:33;;;;;;;6.25;3.83;;;;;;;10.22;nan;102223.94;5043543;28;20032;-73
2022/04/15 08:40:00;;;;;;;6.18;4.13;;;;;;;10.25;nan;102223.53;5050306;28;20051;-73
2022/04/15 08:42:26;;;;;;;5.95;3.60;;;;;;;10.26;nan;102217.13;5042535;28;20024;-73
2022/04/15 08:44:53;;;;;;;6.45;4.03;;;;;;;10.26;nan;102230.53;5041320;28;20025;-73
2022/04/15 08:47:19;;;;;;;6.18;3.90;;;;;;;10.26;nan;102227.84;5045620;28;20025;-73
2022/04/15 08:49:46;;;;;;;6.72;4.45;;;;;;;10.29;nan;102238.16;5041769;28;20025;-73
2022/04/15 08:52:15;;;;;;;5.78;4.43;;;;;;;10.31;nan;102238.75;5041106;28;20780;-73
2022/04/15 08:54:40;;;;;;;5.25;3.83;;;;;;;10.33;nan;102235.88;5042905;28;20449;-73
2022/04/15 08:57:07;;;;;;;6.38;3.92;;;;;;;10.35;nan;102239.97;5042825;28;20025;-73
2022/04/15 08:59:33;;;;;;;6.20;3.47;;;;;;;10.36;nan;102240.78;5042920;28;20513;-73
2022/04/15 09:01:58;;;;;;;4.53;3.63;;;;;;;10.38;nan;102244.91;5042669;28;20028;-73
2022/04/15 09:04:24;;;;;;;5.03;3.78;;;;;;;10.40;nan;102255.41;5043980;28;20047;-73
2022/04/15 09:06:59;;;;;;;6.18;3.75;;;;;;;10.37;nan;102251.31;5041701;28;20035;-73
2022/04/15 09:09:32;;;;;;;4.93;3.33;;;;;;;10.43;nan;102253.16;5049012;28;20594;-73
2022/04/15 09:12:04;;;;;;;4.47;3.13;;;;;;;10.50;nan;102251.28;5043088;28;20037;-73
2022/04/15 09:14:29;;;;;;;4.28;3.05;;;;;;;10.55;nan;102256.81;5027562;28;20036;-73
2022/04/15 09:16:55;;;;;;;4.57;2.97;;;;;;;10.58;nan;102258.25;5042199;28;20029;-73
2022/04/15 09:19:21;;;;;;;4.55;2.75;;;;;;;10.57;nan;102268.16;5041390;28;20025;-73
2022/04/15 09:21:55;;;;;;;4.70;3.10;;;;;;;10.58;nan;102264.44;5042978;28;20021;-73
2022/04/15 09:24:29;;;;;;;4.65;3.20;;;;;;;10.55;nan;102270.22;5038244;28;20033;-73
2022/04/15 09:26:55;;;;;;;4.07;2.95;;;;;;;10.59;nan;102267.94;5034670;28;20036;-73
2022/04/15 09:29:21;;;;;;;4.57;2.83;;;;;;;10.62;nan;102269.41;5041276;28;20025;-73
2022/04/15 09:31:46;;;;;;;5.32;3.30;;;;;;;10.61;nan;102267.75;5037758;28;20029;-73
2022/04/15 09:34:12;;;;;;;4.97;2.85;;;;;;;10.63;nan;102273.72;5042393;28;20036;-73
2022/04/15 09:36:39;;;;;;;4.65;2.55;;;;;;;10.66;nan;102276.78;5040306;28;20041;-73
2022/04/15 09:39:14;;;;;;;4.43;2.83;;;;;;;10.70;nan;102277.19;5044035;28;20036;-73
2022/04/15 09:41:51;;;;;;;3.90;2.58;;;;;;;10.76;nan;102273.66;5039025;28;20048;-73
2022/04/15 09:44:17;;;;;;;4.72;3.25;;;;;;;10.80;nan;102280.25;5041235;28;20047;-72
2022/04/15 09:46:44;;;;;;;5.10;3.03;;;;;;;10.84;nan;102273.44;5039967;28;20976;-72
2022/04/15 09:49:11;;;;;;;5.32;3.60;;;;;;;10.87;nan;102283.72;5039735;28;20032;-73
2022/04/15 09:51:44;;;;;;;4.72;3.70;;;;;;;10.87;nan;102283.72;5036465;28;20024;-74
2022/04/15 09:54:18;;;;;;;4.45;3.38;;;;;;;10.87;nan;102281.88;5033146;28;20032;-73
2022/04/15 09:56:46;;;;;;;3.42;2.65;;;;;;;10.89;nan;102287.84;5040852;28;20044;-74
2022/04/15 09:59:15;;;;;;;3.42;2.33;;;;;;;10.89;nan;102289.69;5038343;28;20120;-74
2022/04/15 10:01:45;;;;;;;3.22;2.17;;;;;;;10.91;nan;102295.66;5042270;28;20086;-74
2022/04/15 10:04:12;;;;;;;3.67;2.47;;;;;;;10.87;nan;102295.28;5042959;28;20970;-74
2022/04/15 10:06:40;;;;;;;3.10;2.47;;;;;;;10.89;nan;102297.75;5042480;28;20061;-74
2022/04/15 10:09:09;;;;;;;3.70;2.45;;;;;;;10.89;nan;102297.75;5040877;28;20521;-74
2022/04/15 10:11:35;;;;;;;4.22;2.65;;;;;;;10.90;nan;102294.84;5040585;28;20139;-74
2022/04/15 10:14:03;;;;;;;3.75;2.53;;;;;;;10.94;nan;102294.41;5038953;28;20512;-74
2022/04/15 10:16:30;;;;;;;3.85;2.47;;;;;;;10.95;nan;102296.06;5033286;28;20048;-74
2022/04/15 10:19:00;;;;;;;3.72;2.83;;;;;;;10.96;nan;102298.56;5040761;28;20055;-74
2022/04/15 10:21:27;;;;;;;4.32;2.70;;;;;;;11.03;nan;102298.50;5042473;28;20025;-74
2022/04/15 10:23:52;;;;;;;2.63;2.28;;;;;;;11.08;nan;102304.06;5040866;28;20173;-74
2022/04/15 10:26:19;;;;;;;5.93;2.33;;;;;;;11.08;nan;102304.88;5038787;28;20036;-74
2022/04/15 10:28:47;;;;;;;2.80;2.03;;;;;;;11.07;nan;102294.38;5039127;28;20033;-74
2022/04/15 10:31:16;;;;;;;2.97;2.17;;;;;;;11.10;nan;102304.66;5045076;28;20940;-75
2022/04/15 10:33:43;;;;;;;3.38;2.10;;;;;;;11.12;nan;102299.91;5045815;28;20786;-74
2022/04/15 10:36:25;;;;;;;2.80;2.10;;;;;;;11.15;nan;102307.56;5045292;28;20045;-74
2022/04/15 10:39:03;;;;;;;3.45;2.22;;;;;;;11.18;nan;102307.94;5042986;28;20090;-75
2022/04/15 10:41:50;;;;;;;3.20;2.28;;;;;;;11.20;nan;102316.59;5043647;28;20033;-75
2022/04/15 10:44:37;;;;;;;3.15;2.20;;;;;;;11.06;nan;102317.69;5042149;28;20060;-74
2022/04/15 10:47:12;;;;;;;3.25;2.35;;;;;;;11.09;nan;102313.75;5043085;28;20028;-75
2022/04/15 10:49:53;;;;;;;3.40;2.58;;;;;;;11.04;nan;102321.63;5042755;28;20033;-76
2022/04/15 10:52:24;;;;;;;3.95;2.28;;;;;;;11.12;nan;102318.69;5044853;28;20103;-75
2022/04/15 10:55:07;;;;;;;2.70;2.20;;;;;;;11.12;nan;102316.00;5046366;28;20098;-75
2022/04/15 10:57:36;;;;;;;2.83;2.40;;;;;;;11.17;nan;102327.75;5043975;28;20119;-75
2022/04/15 11:02:52;;;;;;;3.22;2.53;;;;;;;11.37;nan;102329.53;5044888;28;20039;-75
2022/04/15 11:05:40;;;;;;;2.67;2.30;;;;;;;11.39;nan;102325.56;5044374;28;20033;-75
2022/04/15 11:08:11;;;;;;;2.00;1.73;;;;;;;11.45;nan;102334.63;5040734;28;20029;-75
2022/04/15 11:10:42;;;;;;;2.35;1.90;;;;;;;11.43;nan;102331.34;5043400;28;20040;-75
2022/04/15 11:13:33;;;;;;;2.45;1.75;;;;;;;11.36;nan;102335.94;5040487;28;20387;-75
2022/04/15 11:16:06;;;;;;;2.92;1.58;;;;;;;11.33;nan;102339.03;5041094;28;20579;-75
2022/04/15 11:18:51;;;;;;;2.30;1.58;;;;;;;11.22;nan;102340.53;5040246;28;20517;-75
2022/04/15 11:21:27;;;;;;;3.17;2.47;;;;;;;11.17;nan;102341.16;5044100;28;20028;-75
2022/04/15 11:23:55;;;;;;;3.28;2.42;;;;;;;11.16;nan;102342.22;5045472;28;20072;-75
2022/04/15 11:26:25;;;;;;;3.47;2.75;;;;;;;11.14;nan;102346.16;5040463;28;20021;-75
2022/04/15 11:28:59;;;;;;;5.22;3.15;;;;;;;11.13;nan;102358.72;5044184;28;20100;-75
2022/04/15 11:31:26;;;;;;;4.65;3.90;;;;;;;11.08;nan;102357.69;5042573;28;20022;-76
2022/04/15 11:33:52;;;;;;;4.80;4.30;;;;;;;11.07;nan;102364.09;5044365;28;20025;-75
2022/04/15 11:36:20;;;;;;;8.32;5.10;;;;;;;11.07;nan;102362.25;5038715;28;20039;-75
2022/04/15 11:38:50;;;;;;;7.55;5.18;;;;;;;11.05;nan;102372.38;5045648;28;20212;-75
2022/04/15 11:41:22;;;;;;;9.13;6.05;;;;;;;11.03;nan;102377.13;5040719;28;20690;-76
2022/04/15 11:43:55;;;;;;;12.52;7.97;;;;;;;11.00;nan;102380.22;5042945;28;20024;-76
2022/04/15 11:46:21;;;;;;;15.38;9.32;;;;;;;11.07;nan;102383.72;5044176;28;20033;-76